TAM8067 LFPG-SBGR
Flight info
| Callsign | TAM8067 |
|---|---|
| Flight time | N/A |
| Altitude | 31000 |
| Route | ERIXU DCT ARKIP DCT BALAN DCT FOUCO DCT OSMOB DCT BIDAC DCT ARVID T424 PPN N10 NOLSA N857 BAN/N0493F330 N857 KORNO UN857 TERTO N857 LZR N871 GDV N873 ODEGI/N0492F340 N873 IPERA UN873 TASIL/N0495F360 UN873 NTL DCT OPTUR DCT ASGIK UZ21 TOPUG/N0488F380 UZ21 VUNOX |
| Aircraft | B77W/H-SDE1E2E3FGHIJ2J3J4J5M1RWXY/LB1D1 |
Departure
| Time | N/A |
|---|---|
| Airport | Charles de Gaulle International Airport (LFPG) |
Arrival
| Time | 2026-04-30 12:14 |
|---|---|
| Airport | São Paulo/Guarulhos–Governor André Franco Montoro International Airport (SBGR) |
| Time | Latitude | Longitude | Altitude | Speed | Heading |
|---|---|---|---|---|---|
| 2026-04-30 11:29 | -19.42325 | -43.94462 | 37196 ft | 477 kts | 218° |
| 2026-04-30 11:30 | -19.50371 | -44.00692 | 37223 ft | 477 kts | 218° |
| 2026-04-30 11:31 | -19.55700 | -44.04820 | 37235 ft | 476 kts | 218° |
| 2026-04-30 11:31 | -19.61062 | -44.08920 | 37132 ft | 476 kts | 217° |
| 2026-04-30 11:32 | -19.66458 | -44.13019 | 37140 ft | 476 kts | 218° |
| 2026-04-30 11:32 | -19.71833 | -44.17124 | 37135 ft | 475 kts | 218° |
| 2026-04-30 11:33 | -19.79838 | -44.23316 | 37141 ft | 475 kts | 218° |
| 2026-04-30 11:33 | -19.85141 | -44.27427 | 37142 ft | 474 kts | 218° |
| 2026-04-30 11:34 | -19.90484 | -44.31569 | 37142 ft | 474 kts | 218° |
| 2026-04-30 11:34 | -19.95826 | -44.35711 | 37143 ft | 474 kts | 218° |
| 2026-04-30 11:35 | -20.01113 | -44.39813 | 37143 ft | 473 kts | 218° |
| 2026-04-30 11:35 | -20.06435 | -44.43949 | 37136 ft | 473 kts | 218° |
| 2026-04-30 11:36 | -20.11750 | -44.48081 | 37147 ft | 472 kts | 218° |
| 2026-04-30 11:36 | -20.17056 | -44.52206 | 37147 ft | 472 kts | 218° |
| 2026-04-30 11:37 | -20.22341 | -44.56313 | 37143 ft | 472 kts | 218° |
| 2026-04-30 11:37 | -20.27651 | -44.60444 | 37145 ft | 472 kts | 218° |
| 2026-04-30 11:38 | -20.32959 | -44.64579 | 37153 ft | 472 kts | 219° |
| 2026-04-30 11:38 | -20.38265 | -44.68716 | 37146 ft | 472 kts | 219° |
| 2026-04-30 11:39 | -20.43556 | -44.72846 | 37148 ft | 472 kts | 219° |
| 2026-04-30 11:39 | -20.48867 | -44.76994 | 37147 ft | 472 kts | 219° |
| 2026-04-30 11:40 | -20.54141 | -44.81117 | 37151 ft | 472 kts | 219° |
| 2026-04-30 11:40 | -20.59455 | -44.85276 | 37142 ft | 472 kts | 219° |
| 2026-04-30 11:41 | -20.64732 | -44.89412 | 37145 ft | 472 kts | 219° |
| 2026-04-30 11:41 | -20.70033 | -44.93570 | 37160 ft | 472 kts | 219° |
| 2026-04-30 11:42 | -20.75322 | -44.97721 | 37150 ft | 471 kts | 219° |
| 2026-04-30 11:42 | -20.80614 | -45.01874 | 37149 ft | 471 kts | 219° |
| 2026-04-30 11:43 | -20.85860 | -45.05993 | 37155 ft | 470 kts | 219° |
| 2026-04-30 11:43 | -20.91143 | -45.10147 | 37146 ft | 470 kts | 219° |
| 2026-04-30 11:44 | -20.96422 | -45.14297 | 37148 ft | 470 kts | 219° |
| 2026-04-30 11:44 | -21.01673 | -45.18430 | 37143 ft | 470 kts | 219° |
| 2026-04-30 11:45 | -21.06934 | -45.22575 | 37149 ft | 470 kts | 219° |
| 2026-04-30 11:45 | -21.12203 | -45.26731 | 37141 ft | 470 kts | 219° |
| 2026-04-30 11:46 | -21.17449 | -45.30872 | 37142 ft | 470 kts | 219° |
| 2026-04-30 11:46 | -21.22722 | -45.35039 | 37145 ft | 470 kts | 219° |
| 2026-04-30 11:47 | -21.27957 | -45.39180 | 37161 ft | 469 kts | 219° |
| 2026-04-30 11:47 | -21.33230 | -45.43353 | 37153 ft | 469 kts | 219° |
| 2026-04-30 11:48 | -21.38454 | -45.47494 | 37142 ft | 469 kts | 219° |
| 2026-04-30 11:48 | -21.43707 | -45.51661 | 37138 ft | 469 kts | 220° |
| 2026-04-30 11:49 | -21.48962 | -45.55832 | 37144 ft | 468 kts | 220° |
| 2026-04-30 11:49 | -21.54198 | -45.59964 | 37147 ft | 468 kts | 219° |
| 2026-04-30 11:50 | -21.59481 | -45.64106 | 37154 ft | 468 kts | 219° |
| 2026-04-30 11:50 | -21.64736 | -45.68232 | 37146 ft | 468 kts | 219° |
| 2026-04-30 11:51 | -21.69969 | -45.72351 | 37142 ft | 468 kts | 219° |
| 2026-04-30 11:51 | -21.75217 | -45.76486 | 37147 ft | 467 kts | 219° |
| 2026-04-30 11:52 | -21.80465 | -45.80626 | 36809 ft | 468 kts | 220° |
| 2026-04-30 11:52 | -21.83058 | -45.82674 | 36190 ft | 468 kts | 220° |
| 2026-04-30 11:52 | -21.85687 | -45.84749 | 35440 ft | 469 kts | 220° |
| 2026-04-30 11:53 | -21.88321 | -45.86831 | 34597 ft | 471 kts | 220° |
| 2026-04-30 11:53 | -21.90979 | -45.88933 | 33681 ft | 475 kts | 220° |
| 2026-04-30 11:53 | -21.93649 | -45.91046 | 32690 ft | 478 kts | 220° |
| 2026-04-30 11:53 | -21.96340 | -45.93175 | 31718 ft | 480 kts | 220° |
| 2026-04-30 11:54 | -21.99012 | -45.95290 | 30794 ft | 483 kts | 220° |
| 2026-04-30 11:54 | -22.01719 | -45.97432 | 30105 ft | 480 kts | 220° |
| 2026-04-30 11:54 | -22.04406 | -45.99559 | 29293 ft | 478 kts | 220° |
| 2026-04-30 11:54 | -22.07088 | -46.01685 | 28563 ft | 474 kts | 220° |
| 2026-04-30 11:55 | -22.09740 | -46.03788 | 27875 ft | 471 kts | 220° |
| 2026-04-30 11:55 | -22.12342 | -46.05853 | 27208 ft | 467 kts | 220° |
| 2026-04-30 11:55 | -22.14943 | -46.07919 | 26548 ft | 464 kts | 220° |
| 2026-04-30 11:55 | -22.17539 | -46.09979 | 25901 ft | 461 kts | 220° |
| 2026-04-30 11:56 | -22.20117 | -46.12023 | 25232 ft | 459 kts | 220° |
| 2026-04-30 11:56 | -22.22684 | -46.14059 | 24583 ft | 457 kts | 220° |
| 2026-04-30 11:56 | -22.25244 | -46.16089 | 23920 ft | 455 kts | 220° |
| 2026-04-30 11:56 | -22.27795 | -46.18115 | 23182 ft | 453 kts | 220° |
| 2026-04-30 11:57 | -22.30333 | -46.20100 | 22486 ft | 447 kts | 217° |
| 2026-04-30 11:57 | -22.33105 | -46.21553 | 21877 ft | 451 kts | 200° |
| 2026-04-30 11:57 | -22.36176 | -46.22129 | 21361 ft | 445 kts | 190° |
| 2026-04-30 11:57 | -22.39234 | -46.22514 | 20842 ft | 439 kts | 191° |
| 2026-04-30 11:58 | -22.42253 | -46.22938 | 20326 ft | 434 kts | 191° |
| 2026-04-30 11:58 | -22.45195 | -46.23382 | 19813 ft | 429 kts | 192° |
| 2026-04-30 11:58 | -22.48146 | -46.23844 | 19294 ft | 426 kts | 192° |
| 2026-04-30 11:58 | -22.51064 | -46.24304 | 18783 ft | 423 kts | 192° |
| 2026-04-30 11:59 | -22.53970 | -46.24760 | 18241 ft | 419 kts | 191° |
| 2026-04-30 11:59 | -22.56841 | -46.25207 | 17948 ft | 410 kts | 191° |
| 2026-04-30 11:59 | -22.59633 | -46.25639 | 17689 ft | 403 kts | 191° |
| 2026-04-30 11:59 | -22.62397 | -46.26069 | 17474 ft | 408 kts | 191° |
| 2026-04-30 12:00 | -22.65235 | -46.26512 | 17247 ft | 413 kts | 191° |
| 2026-04-30 12:00 | -22.68093 | -46.26956 | 17003 ft | 413 kts | 191° |
| 2026-04-30 12:00 | -22.70927 | -46.27395 | 16751 ft | 409 kts | 191° |
| 2026-04-30 12:00 | -22.73735 | -46.27830 | 16537 ft | 406 kts | 191° |
| 2026-04-30 12:01 | -22.76528 | -46.28266 | 16304 ft | 403 kts | 191° |
| 2026-04-30 12:01 | -22.79191 | -46.28965 | 15991 ft | 396 kts | 205° |
| 2026-04-30 12:01 | -22.81570 | -46.30406 | 15633 ft | 390 kts | 213° |
| 2026-04-30 12:01 | -22.83915 | -46.31945 | 15256 ft | 394 kts | 212° |
| 2026-04-30 12:02 | -22.86293 | -46.33466 | 14867 ft | 395 kts | 212° |
| 2026-04-30 12:02 | -22.88633 | -46.34937 | 14472 ft | 392 kts | 211° |
| 2026-04-30 12:02 | -22.90989 | -46.36406 | 14085 ft | 387 kts | 211° |
| 2026-04-30 12:02 | -22.93312 | -46.37850 | 13673 ft | 382 kts | 211° |
| 2026-04-30 12:03 | -22.95602 | -46.39271 | 13280 ft | 376 kts | 211° |
| 2026-04-30 12:03 | -23.00094 | -46.42059 | 12542 ft | 367 kts | 211° |
| 2026-04-30 12:03 | -23.01556 | -46.42967 | 12290 ft | 363 kts | 211° |
| 2026-04-30 12:04 | -23.04430 | -46.44752 | 11847 ft | 355 kts | 211° |
| 2026-04-30 12:04 | -23.06561 | -46.46078 | 11486 ft | 350 kts | 211° |
| 2026-04-30 12:04 | -23.08660 | -46.47385 | 11145 ft | 345 kts | 211° |
| 2026-04-30 12:04 | -23.10731 | -46.48673 | 10825 ft | 340 kts | 211° |
| 2026-04-30 12:05 | -23.12091 | -46.49520 | 10595 ft | 337 kts | 211° |
| 2026-04-30 12:05 | -23.14108 | -46.50779 | 10273 ft | 331 kts | 211° |
| 2026-04-30 12:05 | -23.16029 | -46.51975 | 9999 ft | 301 kts | 211° |
| 2026-04-30 12:05 | -23.17785 | -46.53065 | 9718 ft | 288 kts | 211° |
| 2026-04-30 12:06 | -23.19504 | -46.54133 | 9358 ft | 283 kts | 211° |
| 2026-04-30 12:06 | -23.21169 | -46.55182 | 9090 ft | 274 kts | 213° |
| 2026-04-30 12:06 | -23.22769 | -46.56299 | 8822 ft | 272 kts | 215° |
| 2026-04-30 12:06 | -23.24338 | -46.57429 | 8496 ft | 271 kts | 215° |
| 2026-04-30 12:07 | -23.25910 | -46.58555 | 8103 ft | 266 kts | 215° |
| 2026-04-30 12:07 | -23.27445 | -46.59650 | 7902 ft | 262 kts | 215° |
| 2026-04-30 12:07 | -23.28959 | -46.60729 | 7697 ft | 265 kts | 215° |
| 2026-04-30 12:07 | -23.30522 | -46.61841 | 7500 ft | 269 kts | 215° |
| 2026-04-30 12:08 | -23.32088 | -46.62953 | 7339 ft | 270 kts | 215° |
| 2026-04-30 12:08 | -23.33652 | -46.64063 | 7175 ft | 265 kts | 215° |
| 2026-04-30 12:08 | -23.35192 | -46.65158 | 6889 ft | 264 kts | 215° |
| 2026-04-30 12:08 | -23.36706 | -46.66237 | 6704 ft | 260 kts | 215° |
| 2026-04-30 12:09 | -23.38229 | -46.67320 | 6494 ft | 265 kts | 215° |
| 2026-04-30 12:09 | -23.39783 | -46.68414 | 6393 ft | 264 kts | 212° |
| 2026-04-30 12:09 | -23.41546 | -46.68995 | 6159 ft | 267 kts | 183° |
| 2026-04-30 12:09 | -23.43329 | -46.68551 | 5843 ft | 262 kts | 152° |
| 2026-04-30 12:10 | -23.44680 | -46.67347 | 5607 ft | 245 kts | 130° |
| 2026-04-30 12:10 | -23.45640 | -46.65879 | 5382 ft | 230 kts | 124° |
| 2026-04-30 12:10 | -23.46530 | -46.64446 | 5120 ft | 225 kts | 124° |
| 2026-04-30 12:10 | -23.47309 | -46.63013 | 4860 ft | 212 kts | 108° |
| 2026-04-30 12:11 | -23.47322 | -46.61523 | 4628 ft | 189 kts | 73° |
| 2026-04-30 12:11 | -23.46935 | -46.60130 | 4475 ft | 190 kts | 72° |
| 2026-04-30 12:11 | -23.46590 | -46.58819 | 4279 ft | 173 kts | 73° |
| 2026-04-30 12:11 | -23.46271 | -46.57603 | 4083 ft | 161 kts | 73° |
| 2026-04-30 12:12 | -23.45964 | -46.56448 | 3878 ft | 157 kts | 72° |
| 2026-04-30 12:12 | -23.45651 | -46.55310 | 3702 ft | 157 kts | 71° |
| 2026-04-30 12:12 | -23.45355 | -46.54170 | 3475 ft | 156 kts | 74° |
| 2026-04-30 12:12 | -23.45069 | -46.53052 | 3259 ft | 153 kts | 72° |
| 2026-04-30 12:13 | -23.44757 | -46.51955 | 3065 ft | 150 kts | 73° |
| 2026-04-30 12:13 | -23.44479 | -46.50870 | 2900 ft | 150 kts | 73° |
| 2026-04-30 12:13 | -23.44174 | -46.49773 | 2695 ft | 152 kts | 73° |
| 2026-04-30 12:13 | -23.43876 | -46.48681 | 2514 ft | 149 kts | 73° |
| 2026-04-30 12:14 | -23.43590 | -46.47634 | 2476 ft | 134 kts | 73° |
| 2026-04-30 12:14 | -23.43381 | -46.46842 | 2476 ft | 84 kts | 73° |
| 2026-04-30 12:14 | -23.43277 | -46.46466 | 2477 ft | 20 kts | 72° |
| 2026-04-30 12:14 | -23.43193 | -46.46339 | 2480 ft | 21 kts | 44° |
| 2026-04-30 12:15 | -23.43089 | -46.46226 | 2479 ft | 21 kts | 44° |
| 2026-04-30 12:15 | -23.42972 | -46.46138 | 2478 ft | 21 kts | 4° |
| 2026-04-30 12:15 | -23.42832 | -46.46174 | 2477 ft | 21 kts | 343° |
| 2026-04-30 12:15 | -23.42701 | -46.46237 | 2477 ft | 21 kts | 299° |
| 2026-04-30 12:16 | -23.42728 | -46.46390 | 2477 ft | 21 kts | 253° |
| 2026-04-30 12:16 | -23.42769 | -46.46543 | 2476 ft | 21 kts | 254° |
| 2026-04-30 12:16 | -23.42810 | -46.46696 | 2480 ft | 21 kts | 254° |
| 2026-04-30 12:16 | -23.42851 | -46.46849 | 2479 ft | 21 kts | 254° |
| 2026-04-30 12:17 | -23.42932 | -46.47154 | 2474 ft | 21 kts | 251° |
| 2026-04-30 12:17 | -23.42975 | -46.47299 | 2475 ft | 16 kts | 254° |
| 2026-04-30 12:17 | -23.42999 | -46.47393 | 2475 ft | 13 kts | 262° |
| 2026-04-30 12:18 | -23.42943 | -46.47461 | 2475 ft | 13 kts | 335° |
| 2026-04-30 12:18 | -23.42859 | -46.47491 | 2478 ft | 13 kts | 342° |
| 2026-04-30 12:18 | -23.42774 | -46.47519 | 2479 ft | 13 kts | 344° |
| 2026-04-30 12:18 | -23.42691 | -46.47545 | 2477 ft | 8 kts | 344° |
| 2026-04-30 12:19 | -23.42652 | -46.47554 | 2478 ft | 6 kts | 6° |
| 2026-04-30 12:19 | -23.42629 | -46.47519 | 2476 ft | 6 kts | 65° |
| 2026-04-30 12:19 | -23.42615 | -46.47478 | 2475 ft | 6 kts | 72° |
| 2026-04-30 12:19 | -23.42613 | -46.47474 | 2475 ft | 0 kts | 72° |
| 2026-04-30 12:20 | -23.42612 | -46.47469 | 2474 ft | 1 kts | 72° |
| 2026-04-30 12:20 | -23.42610 | -46.47461 | 2475 ft | 1 kts | 72° |
| 2026-04-30 12:20 | -23.42609 | -46.47460 | 2475 ft | 0 kts | 72° |